Latest Weather Observations for Kowanyama

IDQ60801

Issued at 6:02 pm EST Saturday 21 January 2017 (issued every 30 minutes, with the page automatically refreshed every 10 minutes)

About weather observations | Map of weather stations | Latest weather observations for QLD | Other Formats
Station Details ID: 029038 Name: KOWANYAMA AIRPORT Lat: -15.48 Lon: 141.75 Height: 9.6 m
Data from the previous 72 hours. | See also: Recent months at Kowanyama
Date/Time
EST
Temp
°C
App
Temp
°C
Dew
Point
°C
Rel
Hum
%
Delta-T
°C
Wind Press
QNH
hPa
Press
MSL
hPa
Rain since
9am
mm
Dir  Spd
km/h
Gust
km/h
Spd
kts
Gust
kts
21/06:00pm 26.9 31.8 23.6 82 2.3 SE 4 9 2 5 1006.9 1006.8 0.2
21/05:30pm 27.2 32.0 24.5 85 1.9 SSE 7 11 4 6 1006.7 1006.6 0.2
21/05:00pm 27.2 31.8 24.7 86 1.7 S 9 17 5 9 1006.8 1006.7 0.2
21/04:30pm 28.9 33.3 25.7 83 2.3 SW 13 20 7 11 1006.2 1006.1 0.2
21/04:00pm 28.9 33.7 25.7 83 2.3 WNW 11 15 6 8 1006.5 1006.4 0.2
21/03:30pm 28.8 32.5 25.8 84 2.1 WNW 17 22 9 12 1006.7 1006.6 0.2
21/03:00pm 30.4 33.1 24.8 72 3.9 NW 19 26 10 14 1006.6 1006.5 0.0
21/02:30pm 31.6 35.1 24.2 65 5.2 NW 13 19 7 10 1006.9 1006.8 0.0
21/02:00pm 32.7 37.9 23.6 58 6.3 NNW 2 11 1 6 1007.2 1007.1 0.0
21/01:30pm 31.4 35.0 24.3 66 5.0 NW 13 19 7 10 1007.8 1007.7 0.0
21/01:00pm 31.7 35.9 24.8 67 4.9 NNW 11 17 6 9 1008.0 1007.9 0.0
21/12:30pm 31.5 35.3 24.1 65 5.2 NW 11 17 6 9 1008.6 1008.5 0.0
21/12:00pm 31.6 36.0 25.0 68 4.7 NNW 11 17 6 9 1009.1 1009.0 0.0
21/11:30am 30.9 35.2 24.3 68 4.6 WNW 9 13 5 7 1009.6 1009.5 0.0
21/11:00am 29.8 34.0 24.7 74 3.6 WNW 11 17 6 9 1009.9 1009.8 0.0
21/10:30am 28.8 32.0 24.4 77 3.1 WNW 15 19 8 10 1010.0 1009.9 0.0
21/10:00am 30.1 35.7 24.3 71 4.0 NNE 2 7 1 4 1010.2 1010.1 0.0
21/09:55am 30.2 37.0 25.5 76 3.3 CALM 0 2 0 1 1010.2 1010.1 0.0
21/09:30am 29.3 34.5 24.8 77 3.1 N 6 11 3 6 1010.4 1010.3 0.0
21/09:00am 28.3 33.4 24.9 82 2.4 NE 7 11 4 6 1010.4 1010.3 35.8
21/08:30am 28.4 34.1 25.6 85 2.0 ENE 6 9 3 5 1010.3 1010.2 35.8
21/08:04am 27.5 32.9 25.1 87 1.7 ENE 6 9 3 5 1010.2 1010.1 35.8
21/08:00am 27.6 32.9 25.2 87 1.7 ENE 7 9 4 5 1010.1 1010.0 35.8
21/07:30am 26.5 33.3 25.6 95 0.6 CALM 0 0 0 0 1010.0 1009.9 35.8
21/07:00am 25.8 32.4 25.3 97 0.3 CALM 0 0 0 0 1009.9 1009.8 35.8
21/06:30am 25.4 32.0 25.2 99 0.1 CALM 0 0 0 0 1009.4 1009.3 35.8
21/06:00am 25.3 31.8 25.0 98 0.2 CALM 0 6 0 3 1008.9 1008.8 35.8
21/05:30am 25.5 31.3 25.2 98 0.2 N 4 7 2 4 1008.4 1008.3 35.8
21/05:00am 25.4 31.4 24.9 97 0.3 N 2 7 1 4 1008.3 1008.2 35.8
21/04:30am 25.4 31.0 24.9 97 0.3 NNE 4 7 2 4 1008.1 1008.0 35.8
21/04:00am 25.3 31.6 24.8 97 0.3 CALM 0 0 0 0 1008.1 1008.0 35.8
21/03:30am 25.5 31.8 24.8 96 0.5 CALM 0 6 0 3 1008.0 1007.9 35.8
21/03:00am 25.7 31.1 25.2 97 0.3 N 6 11 3 6 1007.9 1007.8 35.8
21/02:30am 25.9 32.8 25.7 99 0.1 CALM 0 6 0 3 1007.9 1007.8 35.8
21/02:00am 25.9 32.7 25.6 98 0.2 CALM 0 0 0 0 1008.0 1007.9 35.4
21/01:30am 25.9 32.6 25.4 97 0.3 CALM 0 0 0 0 1008.1 1008.0 35.4
21/01:00am 25.9 32.2 25.4 97 0.4 NNE 2 7 1 4 1008.1 1008.0 35.4
21/12:30am 25.9 32.5 25.2 96 0.5 CALM 0 6 0 3 1008.3 1008.2 35.4
21/12:00am 26.1 31.9 25.2 95 0.6 N 4 7 2 4 1008.5 1008.4 35.4
 
Date/Time
EST
Temp
°C
App
Temp
°C
Dew
Point
°C
Rel
Hum
%
Delta-T
°C
Wind Press
QNH
hPa
Press
MSL
hPa
Rain since
9am
mm
Dir  Spd
km/h
Gust
km/h
Spd
kts
Gust
kts
20/11:30pm 26.2 33.0 25.5 96 0.5 CALM 0 0 0 0 1008.6 1008.5 35.4
20/11:00pm 26.2 32.6 25.5 96 0.5 N 2 7 1 4 1008.4 1008.3 35.4
20/10:30pm 26.3 33.0 25.4 95 0.6 CALM 0 0 0 0 1008.9 1008.8 35.4
20/10:00pm 26.3 32.6 25.4 95 0.6 N 2 7 1 4 1008.6 1008.5 35.4
20/09:30pm 26.4 32.3 25.4 94 0.7 N 4 7 2 4 1008.5 1008.4 35.4
20/09:00pm 26.5 32.0 25.3 93 0.8 NNE 6 7 3 4 1008.3 1008.2 35.4
20/08:30pm 26.6 33.4 25.6 94 0.7 CALM 0 0 0 0 1008.1 1008.0 35.4
20/08:00pm 26.8 33.5 25.4 92 1.0 CALM 0 0 0 0 1008.0 1007.9 35.4
20/07:30pm 26.9 33.2 25.3 91 1.1 ENE 2 7 1 4 1007.7 1007.6 35.4
20/07:00pm 27.6 34.3 25.4 88 1.5 CALM 0 0 0 0 1007.5 1007.4 35.4
20/06:39pm 27.5 34.1 25.3 88 1.5 CALM 0 0 0 0 1007.7 1007.6 35.4
20/06:30pm 27.8 34.4 25.2 86 1.8 CALM 0 0 0 0 1007.6 1007.5 35.4
20/06:16pm 27.8 34.5 25.4 87 1.7 CALM 0 0 0 0 1007.6 1007.5 35.4
20/06:00pm 27.4 33.7 24.8 86 1.8 CALM 0 0 0 0 1007.5 1007.4 35.4
20/05:30pm 27.2 33.2 24.8 87 1.7 NNW 2 9 1 5 1007.2 1007.1 35.4
20/05:00pm 26.7 31.1 24.4 87 1.6 NNW 9 17 5 9 1006.8 1006.7 35.4
20/04:30pm 26.5 30.4 24.2 87 1.6 N 11 17 6 9 1006.8 1006.7 35.0
20/04:00pm 26.4 30.7 24.2 88 1.5 N 9 17 5 9 1006.9 1006.8 35.0
20/03:30pm 25.4 31.5 24.5 95 0.6 CALM 0 0 0 0 1007.0 1006.9 35.0
20/03:18pm 25.0 30.1 24.1 95 0.6 ENE 4 7 2 4 1007.3 1007.2 35.0
20/03:00pm 24.3 26.4 23.1 93 0.8 NW 17 24 9 13 1007.7 1007.6 33.6
20/02:30pm 25.0 28.5 22.9 88 1.4 NNE 9 15 5 8 1007.4 1007.3 9.6
20/02:14pm 25.0 26.5 21.3 80 2.4 S 15 26 8 14 1007.3 1007.2 7.6
20/02:07pm 25.9 28.4 21.8 78 2.7 SSE 11 17 6 9 1007.5 1007.4 6.6
20/02:00pm 27.4 31.8 24.5 84 2.0 ESE 9 17 5 9 1007.4 1007.3 6.4
20/01:44pm 26.7 29.7 23.4 82 2.3 ENE 13 22 7 12 1007.8 1007.7 1.6
20/01:30pm 28.2 31.0 23.6 76 3.2 ENE 15 22 8 12 1007.5 1007.4 0.0
20/01:00pm 31.8 36.6 24.4 65 5.2 WNW 7 15 4 8 1007.6 1007.5 0.0
20/12:30pm 31.1 35.2 24.0 66 4.9 W 9 15 5 8 1008.2 1008.1 0.0
20/12:00pm 30.9 34.6 24.5 68 4.5 W 13 19 7 10 1008.4 1008.3 0.0
20/11:30am 30.0 33.8 25.3 76 3.3 W 15 20 8 11 1008.7 1008.6 0.0
20/11:00am 31.7 37.7 24.8 67 4.9 SSW 2 9 1 5 1008.9 1008.8 0.0
20/10:30am 30.6 36.8 25.2 73 3.8 WSW 2 7 1 4 1009.4 1009.3 0.0
20/10:00am 29.7 36.6 25.7 79 2.8 CALM 0 4 0 2 1009.8 1009.7 0.0
20/09:30am 28.5 34.1 24.9 81 2.5 ENE 4 9 2 5 1009.7 1009.6 0.0
20/09:00am 27.8 33.0 24.8 84 2.1 NE 6 9 3 5 1009.9 1009.8 22.4
20/08:30am 27.4 32.4 24.5 84 2.0 NE 6 9 3 5 1009.9 1009.8 22.4
20/08:00am 26.6 30.8 24.1 86 1.7 NE 9 11 5 6 1009.7 1009.6 22.4
20/07:30am 25.9 29.8 23.6 87 1.6 NE 9 11 5 6 1009.7 1009.6 22.4
20/07:00am 25.3 29.6 23.7 91 1.1 ENE 7 11 4 6 1009.3 1009.2 22.4
20/06:30am 24.6 28.9 23.6 94 0.7 NE 7 9 4 5 1008.9 1008.8 22.4
20/06:00am 24.5 28.9 23.5 94 0.7 ENE 6 7 3 4 1008.6 1008.5 22.4
20/05:30am 24.4 28.8 23.4 94 0.7 NE 6 9 3 5 1008.2 1008.1 22.4
20/05:00am 24.4 28.8 23.4 94 0.7 N 6 9 3 5 1007.8 1007.7 22.4
20/04:30am 24.3 29.0 23.3 94 0.7 NE 4 7 2 4 1007.4 1007.3 22.4
20/04:00am 24.3 29.2 23.1 93 0.8 ENE 2 6 1 3 1007.4 1007.3 22.4
20/03:30am 24.3 29.6 23.1 93 0.8 CALM 0 0 0 0 1007.4 1007.3 22.4
20/03:00am 24.2 27.7 22.8 92 0.9 NNE 9 11 5 6 1007.1 1007.0 22.4
20/02:30am 24.1 28.0 22.5 91 1.1 NNE 6 7 3 4 1007.2 1007.1 22.4
20/02:00am 24.2 29.3 22.6 91 1.1 CALM 0 0 0 0 1007.3 1007.2 22.4
20/01:30am 24.2 28.1 22.5 90 1.1 NNE 6 9 3 5 1007.6 1007.5 22.4
20/01:00am 24.1 29.1 22.5 91 1.1 CALM 0 6 0 3 1008.0 1007.9 22.4
20/12:30am 24.1 28.3 22.5 91 1.1 N 4 7 2 4 1008.5 1008.4 22.4
20/12:00am 24.2 28.4 22.5 90 1.1 N 4 7 2 4 1008.7 1008.6 22.4
 
Date/Time
EST
Temp
°C
App
Temp
°C
Dew
Point
°C
Rel
Hum
%
Delta-T
°C
Wind Press
QNH
hPa
Press
MSL
hPa
Rain since
9am
mm
Dir  Spd
km/h
Gust
km/h
Spd
kts
Gust
kts
19/11:30pm 24.2 29.0 22.1 88 1.4 CALM 0 0 0 0 1009.0 1008.9 22.4
19/11:00pm 24.5 28.1 22.0 86 1.7 N 6 9 3 5 1009.0 1008.9 22.4
19/10:30pm 24.6 27.9 21.5 83 2.1 N 6 7 3 4 1009.0 1008.9 22.4
19/10:00pm 24.9 28.3 21.6 82 2.2 N 6 9 3 5 1008.9 1008.8 22.4
19/09:30pm 25.2 28.1 21.7 81 2.3 N 9 15 5 8 1008.7 1008.6 22.4
19/09:00pm 25.7 27.7 21.6 78 2.7 N 13 22 7 12 1008.7 1008.6 22.4
19/08:30pm 27.2 32.2 24.8 87 1.7 NNW 7 15 4 8 1008.4 1008.3 22.4
19/08:00pm 27.1 32.5 25.1 89 1.4 N 6 7 3 4 1008.2 1008.1 22.4
19/07:30pm 27.2 33.5 24.8 87 1.7 CALM 0 0 0 0 1008.2 1008.1 22.4
19/07:00pm 27.9 32.9 24.5 82 2.4 NNW 6 9 3 5 1008.0 1007.9 22.4
19/06:30pm 28.3 33.2 24.7 81 2.5 NW 7 11 4 6 1007.4 1007.3 22.4
19/06:00pm 28.7 33.3 24.7 79 2.8 NW 9 13 5 7 1007.4 1007.3 22.4
19/05:30pm 28.9 33.7 25.1 80 2.7 WNW 9 13 5 7 1006.9 1006.8 22.4
19/05:00pm 28.8 34.7 26.2 86 1.9 WNW 7 9 4 5 1006.7 1006.6 22.4
19/04:30pm 27.5 32.4 25.3 88 1.5 W 9 13 5 7 1006.8 1006.7 22.4
19/04:00pm 26.7 32.8 24.5 88 1.5 CALM 0 0 0 0 1007.3 1007.2 22.4
19/03:30pm 26.3 31.8 24.7 91 1.1 N 4 7 2 4 1007.8 1007.7 22.2
19/03:00pm 26.5 32.1 24.9 91 1.1 N 4 11 2 6 1008.1 1008.0 21.8
19/02:51pm 26.4 31.1 25.0 92 1.0 WNW 9 13 5 7 1008.0 1007.9 21.6
19/02:30pm 25.8 28.2 24.6 93 0.8 WNW 20 28 11 15 1008.2 1008.1 18.8
19/02:03pm 27.1 28.6 24.4 85 1.9 WSW 24 32 13 17 1008.5 1008.4 0.2
19/02:00pm 27.8 29.2 24.2 81 2.5 WSW 24 32 13 17 1008.3 1008.2 0.0
19/01:30pm 30.4 33.8 25.2 74 3.7 WNW 17 20 9 11 1008.7 1008.6 0.0
19/01:00pm 32.1 36.2 21.6 53 7.1 E 2 7 1 4 1009.2 1009.1 0.0
19/12:30pm 32.4 37.1 23.4 59 6.2 SW 4 13 2 7 1009.6 1009.5 0.0
19/12:00pm 31.6 37.1 24.0 64 5.3 SSE 2 9 1 5 1009.9 1009.8 0.0
19/11:30am 31.6 35.8 23.2 61 5.8 SE 6 13 3 7 1010.4 1010.3 0.0
19/11:00am 31.1 37.3 25.2 71 4.2 S 2 9 1 5 1010.7 1010.6 0.0
19/10:30am 30.3 35.0 24.0 69 4.4 SSW 6 9 3 5 1011.1 1011.0 0.0
19/10:00am 30.0 34.8 24.2 71 4.0 ESE 6 11 3 6 1011.4 1011.3 0.0
19/09:30am 29.6 34.7 24.0 72 3.9 E 4 7 2 4 1011.3 1011.2 0.0
19/09:00am 28.2 33.9 24.4 80 2.6 N 2 7 1 4 1011.5 1011.4 18.4
19/08:55am 27.9 33.3 24.5 82 2.4 NNE 4 9 2 5 1011.5 1011.4 18.4
19/08:30am 27.9 34.2 25.3 86 1.8 NNE 2 7 1 4 1011.8 1011.7 18.4
19/08:25am 27.1 32.4 24.4 85 1.9 NNE 4 9 2 5 1011.8 1011.7 18.4
19/08:00am 26.4 31.7 25.0 92 1.0 NE 6 9 3 5 1011.9 1011.8 18.4
19/07:30am 26.2 32.7 25.0 93 0.8 CALM 0 0 0 0 1011.6 1011.5 18.4
19/07:00am 26.0 31.4 25.1 95 0.6 N 6 9 3 5 1011.3 1011.2 18.4
19/06:30am 25.9 31.7 25.2 96 0.5 ENE 4 7 2 4 1011.0 1010.9 18.4
19/06:00am 26.0 32.6 25.3 96 0.5 CALM 0 6 0 3 1010.7 1010.6 18.4
19/05:30am 25.8 31.0 25.1 96 0.5 E 7 9 4 5 1010.2 1010.1 18.4
19/05:02am 26.0 31.2 25.1 95 0.6 SE 7 9 4 5 1010.1 1010.0 18.4
19/05:00am 25.9 31.0 25.0 95 0.6 SE 7 9 4 5 1010.1 1010.0 18.4
19/04:51am 26.0 31.2 25.1 95 0.6 ESE 7 11 4 6 1010.0 1009.9 18.4
19/04:30am 26.2 31.6 25.5 96 0.5 ESE 7 11 4 6 1009.8 1009.7 18.4
19/04:00am 26.1 31.5 25.4 96 0.5 E 7 9 4 5 1009.7 1009.6 18.4
19/03:48am 26.4 32.2 25.7 96 0.5 ESE 6 9 3 5 1009.8 1009.7 18.4
19/03:30am 26.2 33.0 25.5 96 0.5 CALM 0 0 0 0 1009.8 1009.7 18.4
19/03:24am 26.1 32.8 25.4 96 0.5 CALM 0 0 0 0 1009.8 1009.7 18.4
19/03:00am 26.1 31.7 25.4 96 0.5 NE 6 9 3 5 1009.6 1009.5 18.4
19/02:30am 26.1 32.8 25.4 96 0.5 CALM 0 0 0 0 1009.4 1009.3 18.4
19/02:08am 26.1 32.8 25.4 96 0.5 CALM 0 0 0 0 1009.8 1009.7 18.4
19/02:00am 26.1 32.7 25.2 95 0.6 CALM 0 0 0 0 1009.9 1009.8 18.4
19/01:30am 26.1 32.0 25.4 96 0.5 ESE 4 9 2 5 1010.3 1010.2 18.4
19/01:00am 26.2 32.2 25.5 96 0.5 SE 4 6 2 3 1010.7 1010.6 18.4
19/12:30am 26.2 31.8 25.5 96 0.5 SE 6 6 3 3 1010.8 1010.7 18.2
19/12:00am 26.2 33.0 25.5 96 0.5 CALM 0 0 0 0 1010.8 1010.7 18.0
 
Date/Time
EST
Temp
°C
App
Temp
°C
Dew
Point
°C
Rel
Hum
%
Delta-T
°C
Wind Press
QNH
hPa
Press
MSL
hPa
Rain since
9am
mm
Dir  Spd
km/h
Gust
km/h
Spd
kts
Gust
kts
18/11:30pm 26.1 31.5 25.4 96 0.5 NE 7 9 4 5 1011.2 1011.1 17.6
18/11:00pm 26.1 31.0 25.2 95 0.6 NE 9 11 5 6 1011.5 1011.4 17.2
18/10:30pm 26.4 32.7 25.4 94 0.7 NE 2 7 1 4 1011.8 1011.7 16.8
18/10:00pm 27.1 34.1 25.9 93 0.8 CALM 0 0 0 0 1011.9 1011.8 15.0
18/09:30pm 27.0 32.5 25.6 92 1.0 ENE 7 7 4 4 1012.0 1011.9 14.6
18/09:00pm 26.9 33.7 25.5 92 1.0 CALM 0 0 0 0 1011.0 1010.9 14.6
18/08:30pm 27.0 33.6 25.2 90 1.3 CALM 0 0 0 0 1010.7 1010.6 14.6
18/08:00pm 26.9 32.0 24.9 89 1.4 SSE 7 9 4 5 1011.0 1010.9 14.6
18/07:30pm 27.2 32.3 24.7 86 1.7 WSW 6 9 3 5 1010.5 1010.4 14.6
18/07:00pm 27.2 31.3 24.5 85 1.9 WSW 11 17 6 9 1010.5 1010.4 14.6
18/06:30pm 26.7 29.9 24.4 87 1.6 WSW 15 22 8 12 1009.8 1009.7 14.6

Other Formats:

Comma delimited format used in spreadsheet applications
http://www.bom.gov.au/fwo/IDQ60801/IDQ60801.94268.axf

JavaScript Object Notation format (JSON) in row-major order
http://www.bom.gov.au/fwo/IDQ60801/IDQ60801.94268.json